createdAt,value
2019-05-01T00:01:18.106Z,30.77
2019-05-01T00:04:05.151Z,28.80
2019-05-01T00:06:40.853Z,31.23
2019-05-01T00:09:11.867Z,29.20
2019-05-01T00:11:41.373Z,27.50
2019-05-01T00:14:10.740Z,29.57
2019-05-01T00:16:40.790Z,31.03
2019-05-01T00:19:10.067Z,28.40
2019-05-01T00:21:39.378Z,27.83
2019-05-01T00:24:09.141Z,27.40
2019-05-01T00:26:38.437Z,28.63
2019-05-01T00:29:07.979Z,27.43
2019-05-01T00:31:37.274Z,27.53
2019-05-01T00:34:06.688Z,28.57
2019-05-01T00:36:36.064Z,30.53
2019-05-01T00:39:07.387Z,31.20
2019-05-01T00:41:36.732Z,29.10
2019-05-01T00:44:06.024Z,28.07
2019-05-01T00:46:35.313Z,27.03
2019-05-01T00:49:04.546Z,28.03
2019-05-01T00:51:33.855Z,31.63
2019-05-01T00:54:04.100Z,29.73
2019-05-01T00:56:41.164Z,27.47
2019-05-01T00:59:30.089Z,27.57
2019-05-01T01:02:15.588Z,27.20
2019-05-01T01:04:44.950Z,27.47
2019-05-01T01:07:14.248Z,29.43
2019-05-01T01:09:43.574Z,27.23
2019-05-01T01:12:12.874Z,29.93
2019-05-01T01:14:42.233Z,28.33
2019-05-01T01:17:11.552Z,27.37
2019-05-01T01:19:40.921Z,29.10
2019-05-01T01:22:10.204Z,30.27
2019-05-01T01:24:39.723Z,25.93
2019-05-01T01:27:09.152Z,26.40
2019-05-01T01:29:38.423Z,27.73
2019-05-01T01:32:07.774Z,25.53
2019-05-01T01:34:37.105Z,27.97
2019-05-01T01:37:06.337Z,29.20
2019-05-01T01:39:35.687Z,26.33
2019-05-01T01:42:05.978Z,27.73
2019-05-01T01:44:43.884Z,25.10
2019-05-01T01:47:13.563Z,24.30
2019-05-01T01:49:42.990Z,27.97
2019-05-01T01:52:13.403Z,28.17
2019-05-01T01:54:42.803Z,26.80
2019-05-01T01:57:12.336Z,27.20
2019-05-01T01:59:42.089Z,28.87
2019-05-01T02:02:27.542Z,24.57
2019-05-01T02:05:15.147Z,25.30
2019-05-01T02:07:44.991Z,25.73
2019-05-01T02:10:16.224Z,28.77
2019-05-01T02:12:45.826Z,27.37
2019-05-01T02:15:15.423Z,26.83
2019-05-01T02:17:44.748Z,26.13
2019-05-01T02:20:14.056Z,29.47
2019-05-01T02:22:43.333Z,28.00
2019-05-01T02:25:13.877Z,26.63
2019-05-01T02:27:52.222Z,26.90
2019-05-01T02:30:22.833Z,27.17
2019-05-01T02:32:53.785Z,27.67
2019-05-01T02:35:25.682Z,26.53
2019-05-01T02:37:55.767Z,29.90
2019-05-01T02:40:45.273Z,27.73
2019-05-01T02:43:17.544Z,26.63
2019-05-01T02:45:50.765Z,29.10
2019-05-01T02:48:24.145Z,27.97
2019-05-01T02:50:56.809Z,23.33
2019-05-01T02:53:27.254Z,23.23
2019-05-01T02:56:33.182Z,27.87
2019-05-01T02:59:06.200Z,26.50
2019-05-01T03:01:47.014Z,30.73
2019-05-01T03:04:10.377Z,26.77
2019-05-01T03:06:41.547Z,27.90
2019-05-01T03:09:10.908Z,29.30
2019-05-01T03:11:42.356Z,27.27
2019-05-01T03:14:17.730Z,23.03
2019-05-01T03:16:48.529Z,24.17
2019-05-01T03:19:38.376Z,24.47
2019-05-01T03:22:14.833Z,26.10
2019-05-01T03:24:44.218Z,25.73
2019-05-01T03:27:13.890Z,25.23
2019-05-01T03:29:43.163Z,27.07
2019-05-01T03:32:17.985Z,25.97
2019-05-01T03:34:43.835Z,24.50
2019-05-01T03:37:14.048Z,26.70
2019-05-01T03:39:43.363Z,24.37
2019-05-01T03:42:13.451Z,26.90
2019-05-01T03:44:42.825Z,26.73
2019-05-01T03:47:12.153Z,26.03
2019-05-01T03:49:41.786Z,26.00
2019-05-01T03:52:11.126Z,30.57
2019-05-01T03:54:40.560Z,26.33
2019-05-01T03:57:12.729Z,24.87
2019-05-01T03:59:43.285Z,25.93
2019-05-01T04:02:34.118Z,25.57
2019-05-01T04:05:03.319Z,27.47
2019-05-01T04:07:36.292Z,27.63
2019-05-01T04:10:04.366Z,27.00
2019-05-01T04:12:33.689Z,26.50
2019-05-01T04:15:03.340Z,28.60
2019-05-01T04:17:58.518Z,27.40
2019-05-01T04:20:29.314Z,26.23
2019-05-01T04:22:59.024Z,29.40
2019-05-01T04:25:28.521Z,29.47
2019-05-01T04:27:59.717Z,28.40
2019-05-01T04:30:59.009Z,28.20
2019-05-01T04:33:29.531Z,27.13
2019-05-01T04:36:04.299Z,26.80
2019-05-01T04:38:34.151Z,26.30
2019-05-01T04:41:03.797Z,28.70
2019-05-01T04:43:33.829Z,29.40
2019-05-01T04:46:03.604Z,27.33
2019-05-01T04:48:33.447Z,26.23
2019-05-01T04:51:03.072Z,25.50
2019-05-01T04:53:32.803Z,25.97
2019-05-01T04:56:02.515Z,27.37
2019-05-01T04:58:32.039Z,32.83
2019-05-01T05:01:01.933Z,33.27
2019-05-01T05:03:31.369Z,38.70
2019-05-01T05:06:01.337Z,42.83
2019-05-01T05:08:31.562Z,42.23
2019-05-01T05:11:02.487Z,40.43
2019-05-01T05:13:40.269Z,42.47
2019-05-01T05:16:27.020Z,40.23
2019-05-01T05:18:56.536Z,40.97
2019-05-01T05:21:26.211Z,43.07
2019-05-01T05:23:55.542Z,39.77
2019-05-01T05:26:25.956Z,39.57
2019-05-01T05:28:57.013Z,39.10
2019-05-01T05:31:27.839Z,40.77
2019-05-01T05:34:00.135Z,39.73
2019-05-01T05:36:31.251Z,41.50
2019-05-01T05:39:26.542Z,40.73
2019-05-01T05:41:57.048Z,38.73
2019-05-01T05:44:26.667Z,37.07
2019-05-01T05:46:55.964Z,42.43
2019-05-01T05:49:25.496Z,40.70
2019-05-01T05:52:05.790Z,41.57
2019-05-01T05:54:54.817Z,43.13
2019-05-01T05:57:36.580Z,44.60
2019-05-01T06:00:26.337Z,42.50
2019-05-01T06:03:05.739Z,42.70
2019-05-01T06:06:03.124Z,46.33
2019-05-01T06:08:34.729Z,41.67
2019-05-01T06:11:22.308Z,47.17
2019-05-01T06:14:12.676Z,43.87
2019-05-01T06:17:04.133Z,51.10
2019-05-01T06:19:39.071Z,52.27
2019-05-01T06:22:27.136Z,52.73
2019-05-01T06:25:21.254Z,49.90
2019-05-01T06:27:44.799Z,48.47
2019-05-01T06:30:13.676Z,49.20
2019-05-01T06:32:43.460Z,46.73
2019-05-01T06:35:12.882Z,47.63
2019-05-01T06:38:03.675Z,46.23
2019-05-01T06:40:38.928Z,41.80
2019-05-01T06:43:13.499Z,42.90
2019-05-01T06:45:51.602Z,44.03
2019-05-01T06:48:19.720Z,44.37
2019-05-01T06:50:55.949Z,44.47
2019-05-01T06:53:25.517Z,43.63
2019-05-01T06:55:54.960Z,43.20
2019-05-01T06:58:24.806Z,43.20
2019-05-01T07:00:54.204Z,49.63
2019-05-01T07:03:23.633Z,43.67
2019-05-01T07:05:54.238Z,51.80
2019-05-01T07:08:25.054Z,43.80
2019-05-01T07:10:55.659Z,45.27
2019-05-01T07:13:25.013Z,46.27
2019-05-01T07:15:58.399Z,48.90
2019-05-01T07:18:29.005Z,45.67
2019-05-01T07:20:56.453Z,47.77
2019-05-01T07:23:25.782Z,45.00
2019-05-01T07:25:55.531Z,43.37
2019-05-01T07:28:29.019Z,40.70
2019-05-01T07:31:00.765Z,39.60
2019-05-01T07:33:30.405Z,43.40
2019-05-01T07:35:59.725Z,41.47
2019-05-01T07:38:32.856Z,41.43
2019-05-01T07:41:03.346Z,48.23
2019-05-01T07:43:43.668Z,45.80
2019-05-01T07:46:21.348Z,43.30
2019-05-01T07:48:50.980Z,39.50
2019-05-01T07:51:20.673Z,43.53
2019-05-01T07:53:51.136Z,45.43
2019-05-01T07:56:22.773Z,43.63
2019-05-01T07:58:53.420Z,39.47
2019-05-01T08:01:54.400Z,38.70
2019-05-01T08:04:35.177Z,38.57
2019-05-01T08:06:56.962Z,37.90
2019-05-01T08:09:24.812Z,36.93
2019-05-01T08:11:54.117Z,36.00
2019-05-01T08:14:23.322Z,36.27
2019-05-01T08:16:52.670Z,34.53
2019-05-01T08:19:47.106Z,36.17
2019-05-01T08:22:19.710Z,34.63
2019-05-01T08:24:49.064Z,33.37
2019-05-01T08:27:43.456Z,36.87
2019-05-01T08:30:30.888Z,35.10
2019-05-01T08:33:19.169Z,36.97
2019-05-01T08:35:48.420Z,38.57
2019-05-01T08:38:17.848Z,35.83
2019-05-01T08:40:50.674Z,37.73
2019-05-01T08:43:19.473Z,38.77
2019-05-01T08:46:06.715Z,38.70
2019-05-01T08:48:43.857Z,32.73
2019-05-01T08:51:13.242Z,34.07
2019-05-01T08:53:42.474Z,33.20
2019-05-01T08:56:11.825Z,37.83
2019-05-01T08:58:44.772Z,37.87
2019-05-01T09:01:15.031Z,38.30
2019-05-01T09:03:43.888Z,39.77
2019-05-01T09:06:14.561Z,38.17
2019-05-01T09:08:44.031Z,37.00
2019-05-01T09:11:13.422Z,35.90
2019-05-01T09:13:42.793Z,35.13
2019-05-01T09:16:12.133Z,39.20
2019-05-01T09:18:41.684Z,41.93
2019-05-01T09:21:11.155Z,41.27
2019-05-01T09:23:40.449Z,42.43
2019-05-01T09:26:17.804Z,42.70
2019-05-01T09:28:52.827Z,41.20
2019-05-01T09:31:24.325Z,43.03
2019-05-01T09:33:53.604Z,42.80
2019-05-01T09:36:22.908Z,41.30
2019-05-01T09:38:52.509Z,41.83
2019-05-01T09:41:21.947Z,40.77
2019-05-01T09:43:51.638Z,43.10
2019-05-01T09:46:20.979Z,42.67
2019-05-01T09:48:50.489Z,40.47
2019-05-01T09:51:47.502Z,42.93
2019-05-01T09:54:27.056Z,38.30
2019-05-01T09:56:56.430Z,42.80
2019-05-01T09:59:32.298Z,39.20
2019-05-01T10:02:02.937Z,40.20
2019-05-01T10:04:32.863Z,42.53
2019-05-01T10:07:02.374Z,44.00
2019-05-01T10:09:32.153Z,39.67
2019-05-01T10:12:01.500Z,40.50
2019-05-01T10:14:31.591Z,41.43
2019-05-01T10:17:01.903Z,42.67
2019-05-01T10:19:34.144Z,42.10
2019-05-01T10:22:04.318Z,38.47
2019-05-01T10:24:37.596Z,41.73
2019-05-01T10:27:06.956Z,40.33
2019-05-01T10:30:02.985Z,41.47
2019-05-01T10:32:57.939Z,37.47
2019-05-01T10:35:42.989Z,40.03
2019-05-01T10:38:09.414Z,41.20
2019-05-01T10:40:39.653Z,39.60
2019-05-01T10:43:08.952Z,40.43
2019-05-01T10:45:38.615Z,41.03
2019-05-01T10:48:07.972Z,40.70
2019-05-01T10:50:37.491Z,41.43
2019-05-01T10:53:07.265Z,39.57
2019-05-01T10:55:36.853Z,40.10
2019-05-01T10:58:06.322Z,39.40
2019-05-01T11:00:37.301Z,40.30
2019-05-01T11:03:06.595Z,40.83
2019-05-01T11:05:35.977Z,40.40
2019-05-01T11:08:06.010Z,40.47
2019-05-01T11:10:35.322Z,39.33
2019-05-01T11:13:07.652Z,38.67
2019-05-01T11:15:35.813Z,39.90
2019-05-01T11:18:07.061Z,38.80
2019-05-01T11:20:37.478Z,37.50
2019-05-01T11:23:09.483Z,36.30
2019-05-01T11:25:39.401Z,37.97
2019-05-01T11:28:08.862Z,36.33
2019-05-01T11:30:38.499Z,37.60
2019-05-01T11:33:13.892Z,36.60
2019-05-01T11:36:09.690Z,35.87
2019-05-01T11:38:45.542Z,32.67
2019-05-01T11:41:27.975Z,33.67
2019-05-01T11:43:57.258Z,33.87
2019-05-01T11:46:26.978Z,34.40
2019-05-01T11:48:56.329Z,34.07
2019-05-01T11:51:25.659Z,34.17
2019-05-01T11:53:55.096Z,33.93
2019-05-01T11:56:24.761Z,36.37
2019-05-01T11:58:54.485Z,36.97
2019-05-01T12:01:25.350Z,35.87
2019-05-01T12:03:54.592Z,35.30
2019-05-01T12:06:24.297Z,35.07
2019-05-01T12:08:53.898Z,37.00
2019-05-01T12:11:25.082Z,37.67
2019-05-01T12:13:54.434Z,36.90
2019-05-01T12:16:41.310Z,37.27
2019-05-01T12:19:10.659Z,36.40
2019-05-01T12:21:40.039Z,36.00
2019-05-01T12:24:09.313Z,35.77
2019-05-01T12:26:38.638Z,37.13
2019-05-01T12:29:09.373Z,35.07
2019-05-01T12:31:38.668Z,36.40
2019-05-01T12:34:08.035Z,36.50
2019-05-01T12:36:38.160Z,36.13
2019-05-01T12:39:08.759Z,34.87
2019-05-01T12:41:44.705Z,36.37
2019-05-01T12:44:16.816Z,38.87
2019-05-01T12:46:59.139Z,35.67
2019-05-01T12:49:28.532Z,36.67
2019-05-01T12:52:10.382Z,35.10
2019-05-01T12:54:43.524Z,38.67
2019-05-01T12:57:12.913Z,38.83
2019-05-01T12:59:42.240Z,37.13
2019-05-01T13:02:13.188Z,37.37
2019-05-01T13:04:42.505Z,37.73
2019-05-01T13:07:11.890Z,36.20
2019-05-01T13:09:41.205Z,36.93
2019-05-01T13:12:10.508Z,37.10
2019-05-01T13:14:39.873Z,36.53
2019-05-01T13:17:09.211Z,38.70
2019-05-01T13:19:38.542Z,35.23
2019-05-01T13:22:08.395Z,35.70
2019-05-01T13:24:50.102Z,36.27
2019-05-01T13:27:41.708Z,39.20
2019-05-01T13:30:27.980Z,34.83
2019-05-01T13:32:57.320Z,37.87
2019-05-01T13:35:26.983Z,36.80
2019-05-01T13:37:56.295Z,38.17
2019-05-01T13:40:25.571Z,38.50
2019-05-01T13:42:54.899Z,36.90
2019-05-01T13:45:24.275Z,37.17
2019-05-01T13:47:54.615Z,41.53
2019-05-01T13:50:24.682Z,37.43
2019-05-01T13:52:54.028Z,40.10
2019-05-01T13:55:23.341Z,36.33
2019-05-01T13:57:52.651Z,38.10
2019-05-01T14:00:23.375Z,38.30
2019-05-01T14:02:52.813Z,38.67
2019-05-01T14:05:22.888Z,38.33
2019-05-01T14:07:52.284Z,37.23
2019-05-01T14:10:22.651Z,39.23
2019-05-01T14:12:51.976Z,40.13
2019-05-01T14:15:21.281Z,39.03
2019-05-01T14:17:51.141Z,41.20
2019-05-01T14:20:38.600Z,40.90
2019-05-01T14:23:36.049Z,38.93
2019-05-01T14:26:24.458Z,36.90
2019-05-01T14:28:53.901Z,40.83
2019-05-01T14:31:23.257Z,41.00
2019-05-01T14:33:52.474Z,40.83
2019-05-01T14:36:21.789Z,40.50
2019-05-01T14:38:51.087Z,40.93
2019-05-01T14:41:20.388Z,42.23
2019-05-01T14:43:50.111Z,40.07
2019-05-01T14:46:19.423Z,39.30
2019-05-01T14:48:49.907Z,42.00
2019-05-01T14:51:21.585Z,39.80
2019-05-01T14:53:50.650Z,37.87
2019-05-01T14:56:19.982Z,39.50
2019-05-01T14:58:49.812Z,44.47
2019-05-01T15:01:19.106Z,41.63
2019-05-01T15:03:50.084Z,41.37
2019-05-01T15:06:19.409Z,41.07
2019-05-01T15:08:48.810Z,42.10
2019-05-01T15:11:18.101Z,44.63
2019-05-01T15:14:15.644Z,39.40
2019-05-01T15:16:52.537Z,43.20
2019-05-01T15:19:29.468Z,42.27
2019-05-01T15:21:58.760Z,40.47
2019-05-01T15:24:28.597Z,39.40
2019-05-01T15:26:57.945Z,41.33
2019-05-01T15:29:28.685Z,40.87
2019-05-01T15:31:58.013Z,41.20
2019-05-01T15:34:27.352Z,39.83
2019-05-01T15:36:56.674Z,40.67
2019-05-01T15:39:34.005Z,39.93
2019-05-01T15:42:26.302Z,42.77
2019-05-01T15:44:55.624Z,41.57
2019-05-01T15:47:25.025Z,42.40
2019-05-01T15:49:54.761Z,39.97
2019-05-01T15:52:25.807Z,39.43
2019-05-01T15:54:56.224Z,39.60
2019-05-01T15:57:25.833Z,40.00
2019-05-01T15:59:55.660Z,42.33
2019-05-01T16:02:26.076Z,42.80
2019-05-01T16:04:55.358Z,43.50
2019-05-01T16:07:24.910Z,41.50
2019-05-01T16:09:54.690Z,42.67
2019-05-01T16:12:32.599Z,41.47
2019-05-01T16:15:02.411Z,38.30
2019-05-01T16:17:32.140Z,39.00
2019-05-01T16:20:04.287Z,40.87
2019-05-01T16:22:33.646Z,38.67
2019-05-01T16:25:03.129Z,38.60
2019-05-01T16:27:32.579Z,39.07
2019-05-01T16:30:05.460Z,39.60
2019-05-01T16:32:34.874Z,39.47
2019-05-01T16:35:04.778Z,41.70
2019-05-01T16:37:34.083Z,40.43
2019-05-01T16:40:28.536Z,40.90
2019-05-01T16:42:58.973Z,41.57
2019-05-01T16:45:28.289Z,42.40
2019-05-01T16:47:59.093Z,41.83
2019-05-01T16:50:28.415Z,41.80
2019-05-01T16:52:59.033Z,42.60
2019-05-01T16:55:28.481Z,42.30
2019-05-01T16:57:58.151Z,42.80
2019-05-01T17:01:00.900Z,41.47
2019-05-01T17:03:39.859Z,41.10
2019-05-01T17:06:26.800Z,41.17
2019-05-01T17:08:59.522Z,40.47
2019-05-01T17:11:31.071Z,42.30
2019-05-01T17:14:01.568Z,42.00
2019-05-01T17:16:30.891Z,42.80
2019-05-01T17:19:00.216Z,44.07
2019-05-01T17:21:30.104Z,41.57
2019-05-01T17:23:59.728Z,41.33
2019-05-01T17:26:30.748Z,43.33
2019-05-01T17:29:03.300Z,40.80
2019-05-01T17:31:32.659Z,43.77
2019-05-01T17:34:02.146Z,42.00
2019-05-01T17:36:32.561Z,41.40
2019-05-01T17:39:03.885Z,43.47
2019-05-01T17:41:33.233Z,42.60
2019-05-01T17:44:03.727Z,42.23
2019-05-01T17:46:33.205Z,43.03
2019-05-01T17:49:04.293Z,44.07
2019-05-01T17:51:33.828Z,46.60
2019-05-01T17:54:08.657Z,42.60
2019-05-01T17:56:38.052Z,44.40
2019-05-01T17:59:07.367Z,45.77
2019-05-01T18:01:55.630Z,45.30
2019-05-01T18:04:35.443Z,46.73
2019-05-01T18:07:05.918Z,46.87
2019-05-01T18:09:35.267Z,44.23
2019-05-01T18:12:04.952Z,48.97
2019-05-01T18:14:34.291Z,45.93
2019-05-01T18:17:03.633Z,47.37
2019-05-01T18:19:32.984Z,46.73
2019-05-01T18:22:19.711Z,49.27
2019-05-01T18:24:58.506Z,45.60
2019-05-01T18:27:59.089Z,46.07
2019-05-01T18:30:33.873Z,48.87
2019-05-01T18:33:03.572Z,48.17
2019-05-01T18:35:32.879Z,47.60
2019-05-01T18:38:27.254Z,48.40
2019-05-01T18:41:03.135Z,47.50
2019-05-01T18:43:33.881Z,44.57
2019-05-01T18:46:08.818Z,46.00
2019-05-01T18:48:42.252Z,44.57
2019-05-01T18:51:11.592Z,46.37
2019-05-01T18:53:41.671Z,44.30
2019-05-01T18:56:11.024Z,46.70
2019-05-01T18:58:40.310Z,49.60
2019-05-01T19:01:11.159Z,44.43
2019-05-01T19:03:42.185Z,45.77
2019-05-01T19:06:12.000Z,46.53
2019-05-01T19:08:41.323Z,45.70
2019-05-01T19:11:12.592Z,48.80
2019-05-01T19:13:42.137Z,45.30
2019-05-01T19:16:12.756Z,45.50
2019-05-01T19:18:43.627Z,47.40
2019-05-01T19:21:13.001Z,42.80
2019-05-01T19:23:42.403Z,46.77
2019-05-01T19:26:13.383Z,47.13
2019-05-01T19:28:42.775Z,42.10
2019-05-01T19:31:12.143Z,42.03
2019-05-01T19:33:42.077Z,45.23
2019-05-01T19:36:11.368Z,47.83
2019-05-01T19:38:40.677Z,46.47
2019-05-01T19:41:14.135Z,45.40
2019-05-01T19:43:42.168Z,46.60
2019-05-01T19:46:11.756Z,47.90
2019-05-01T19:48:45.459Z,47.00
2019-05-01T19:51:12.139Z,46.33
2019-05-01T19:53:41.480Z,49.90
2019-05-01T19:56:11.232Z,52.50
2019-05-01T19:58:40.515Z,51.10
2019-05-01T20:01:09.908Z,49.23
2019-05-01T20:03:39.295Z,49.27
2019-05-01T20:06:08.845Z,48.23
2019-05-01T20:08:40.533Z,47.27
2019-05-01T20:11:10.073Z,45.77
2019-05-01T20:13:39.817Z,46.53
2019-05-01T20:16:10.824Z,45.90
2019-05-01T20:18:40.153Z,45.47
2019-05-01T20:21:12.269Z,44.60
2019-05-01T20:23:41.604Z,47.20
2019-05-01T20:26:11.008Z,46.93
2019-05-01T20:28:40.414Z,44.30
2019-05-01T20:31:09.862Z,45.50
2019-05-01T20:33:44.111Z,47.40
2019-05-01T20:36:12.313Z,48.93
2019-05-01T20:38:41.908Z,45.70
2019-05-01T20:41:16.064Z,50.47
2019-05-01T20:43:45.460Z,50.50
2019-05-01T20:46:15.009Z,51.13
2019-05-01T20:48:44.789Z,48.90
2019-05-01T20:51:14.166Z,48.60
2019-05-01T20:53:43.522Z,50.20
2019-05-01T20:56:25.471Z,49.20
2019-05-01T20:58:57.720Z,48.67
2019-05-01T21:01:28.231Z,49.73
2019-05-01T21:04:15.092Z,49.63
2019-05-01T21:06:47.669Z,49.50
2019-05-01T21:09:22.901Z,49.30
2019-05-01T21:12:05.045Z,52.67
2019-05-01T21:14:27.782Z,48.90
2019-05-01T21:16:57.169Z,48.33
2019-05-01T21:19:28.759Z,46.47
2019-05-01T21:21:57.885Z,48.27
2019-05-01T21:24:27.239Z,51.20
2019-05-01T21:26:57.046Z,49.30
2019-05-01T21:29:26.462Z,49.20
2019-05-01T21:31:55.824Z,48.83
2019-05-01T21:34:25.203Z,50.13
2019-05-01T21:36:54.496Z,51.67
2019-05-01T21:39:26.740Z,49.33
2019-05-01T21:41:55.245Z,52.10
2019-05-01T21:44:25.131Z,55.37
2019-05-01T21:46:54.469Z,53.43
2019-05-01T21:49:23.880Z,50.43
2019-05-01T21:51:53.184Z,51.47
2019-05-01T21:54:22.604Z,53.40
2019-05-01T21:56:51.928Z,52.27
2019-05-01T21:59:21.353Z,51.47
2019-05-01T22:01:50.676Z,51.67
2019-05-01T22:04:20.331Z,51.13
2019-05-01T22:06:52.012Z,55.30
2019-05-01T22:09:23.145Z,51.60
2019-05-01T22:11:52.379Z,50.40
2019-05-01T22:14:39.536Z,49.43
2019-05-01T22:17:16.278Z,48.87
2019-05-01T22:19:46.059Z,52.70
2019-05-01T22:22:33.271Z,52.20
2019-05-01T22:25:21.621Z,50.63
2019-05-01T22:28:03.192Z,53.47
2019-05-01T22:30:36.927Z,53.87
2019-05-01T22:33:06.479Z,52.93
2019-05-01T22:35:42.036Z,49.27
2019-05-01T22:38:11.686Z,52.87
2019-05-01T22:41:06.274Z,55.43
2019-05-01T22:43:28.989Z,57.27
2019-05-01T22:46:01.446Z,55.47
2019-05-01T22:48:29.549Z,54.90
2019-05-01T22:51:03.693Z,55.10
2019-05-01T22:53:33.146Z,53.57
2019-05-01T22:56:04.069Z,55.17
2019-05-01T22:58:33.492Z,52.60
2019-05-01T23:01:04.768Z,55.13
2019-05-01T23:03:46.466Z,52.57
2019-05-01T23:06:15.765Z,55.50
2019-05-01T23:08:45.352Z,52.37
2019-05-01T23:11:20.063Z,54.90
2019-05-01T23:13:45.750Z,52.80
2019-05-01T23:16:17.552Z,54.00
2019-05-01T23:18:52.041Z,54.67
2019-05-01T23:21:18.513Z,54.60
2019-05-01T23:23:47.780Z,53.43
2019-05-01T23:26:18.599Z,55.97
2019-05-01T23:28:48.209Z,56.43
2019-05-01T23:31:17.792Z,56.73
2019-05-01T23:33:50.681Z,53.37
2019-05-01T23:36:23.740Z,57.37
2019-05-01T23:38:49.188Z,60.67
2019-05-01T23:41:18.460Z,55.17
2019-05-01T23:43:47.848Z,62.50
2019-05-01T23:46:17.154Z,52.70
2019-05-01T23:48:46.744Z,55.77
2019-05-01T23:51:16.397Z,56.33
2019-05-01T23:53:48.230Z,53.73
2019-05-01T23:56:16.762Z,55.30
2019-05-01T23:58:46.063Z,55.93
